Time;durP1;ratioP1;P1;durP2;ratioP2;P2;SDS_P1;SDS_P2;PMS_P1;PMS_P2;Temp;Humidity;BMP_temperature;BMP_pressure;BME280_temperature;BME280_humidity;BME280_pressure;Samples;Min_cycle;Max_cycle;Signal;HPM_P1;HPM_P2
2022/03/20 00:00:26;;;;;;;;;;;;;;;2.56;62.88;97487.66;4942883;29;19949;-71
2022/03/20 00:02:53;;;;;;;;;;;;;;;2.58;63.79;97498.69;4950708;29;19965;-71
2022/03/20 00:05:19;;;;;;;;;;;;;;;2.57;63.54;97494.47;4948211;29;19953;-71
2022/03/20 00:07:46;;;;;;;;;;;;;;;2.54;63.84;97493.91;4945814;29;19965;-71
2022/03/20 00:10:12;;;;;;;;;;;;;;;2.51;62.88;97489.03;4946320;29;19959;-71
2022/03/20 00:12:39;;;;;;;;;;;;;;;2.48;63.69;97492.72;4948302;29;19972;-71
2022/03/20 00:15:05;;;;;;;;;;;;;;;2.45;62.48;97482.63;4952917;29;19953;-71
2022/03/20 00:17:31;;;;;;;;;;;;;;;2.36;63.33;97483.50;4948847;29;19962;-71
2022/03/20 00:19:57;;;;;;;;;;;;;;;2.30;63.71;97487.44;4930287;29;20354;-71
2022/03/20 00:22:23;;;;;;;;;;;;;;;2.31;63.96;97486.50;4944320;29;20028;-71
2022/03/20 00:24:49;;;;;;;;;;;;;;;2.32;63.33;97482.13;4946255;29;19965;-71
2022/03/20 00:27:15;;;;;;;;;;;;;;;2.36;63.50;97480.91;4932978;29;19978;-71
2022/03/20 00:29:41;;;;;;;;;;;;;;;2.41;63.86;97483.88;4948541;29;19957;-71
2022/03/20 00:32:11;;;;;;;;;;;;;;;2.44;63.39;97481.84;4949846;28;19960;-71
2022/03/20 00:34:37;;;;;;;;;;;;;;;2.48;63.40;97484.97;4946117;29;19959;-71
2022/03/20 00:37:04;;;;;;;;;;;;;;;2.53;63.23;97476.75;4947677;29;20350;-71
2022/03/20 00:39:29;;;;;;;;;;;;;;;2.58;63.35;97477.97;4946409;29;19955;-71
2022/03/20 00:41:55;;;;;;;;;;;;;;;2.64;63.61;97482.56;4944193;29;20451;-71
2022/03/20 00:44:21;;;;;;;;;;;;;;;2.67;63.51;97475.47;4928280;29;20412;-71
2022/03/20 00:46:48;;;;;;;;;;;;;;;2.71;63.61;97476.81;4948209;29;20008;-70
2022/03/20 00:49:14;;;;;;;;;;;;;;;2.74;63.05;97473.97;4949454;29;19953;-71
2022/03/20 00:51:41;;;;;;;;;;;;;;;2.78;62.90;97472.72;4941178;29;19951;-70
2022/03/20 00:54:07;;;;;;;;;;;;;;;2.78;61.79;97463.16;4946007;29;19976;-71
2022/03/20 00:56:33;;;;;;;;;;;;;;;2.78;62.21;97462.34;4947317;29;20007;-70
2022/03/20 00:58:58;;;;;;;;;;;;;;;2.78;61.92;97463.16;4947807;29;20010;-71
2022/03/20 01:01:26;;;;;;;;;;;;;;;2.74;61.90;97469.59;4945089;29;20415;-71
2022/03/20 01:03:52;;;;;;;;;;;;;;;2.74;61.98;97473.97;4943338;29;19945;-70
2022/03/20 01:06:18;;;;;;;;;;;;;;;2.73;61.54;97467.97;4946085;29;19957;-71
2022/03/20 01:08:44;;;;;;;;;;;;;;;2.69;61.86;97460.59;4948772;29;20408;-70
2022/03/20 01:11:10;;;;;;;;;;;;;;;2.69;61.30;97458.00;4950429;29;19970;-70
2022/03/20 01:13:36;;;;;;;;;;;;;;;2.70;61.90;97451.88;4947736;29;19971;-70
2022/03/20 01:16:02;;;;;;;;;;;;;;;2.72;61.82;97453.38;4943173;29;19958;-70
2022/03/20 01:18:28;;;;;;;;;;;;;;;2.75;61.61;97450.50;4947699;29;19951;-70
2022/03/20 01:20:54;;;;;;;;;;;;;;;2.78;61.18;97449.41;4952278;29;20460;-71
2022/03/20 01:23:21;;;;;;;;;;;;;;;2.79;61.12;97435.47;4945558;29;19956;-70
2022/03/20 01:25:47;;;;;;;;;;;;;;;2.71;61.51;97417.25;4923137;29;19976;-71
2022/03/20 01:28:14;;;;;;;;;;;;;;;2.66;62.25;97427.22;4947433;29;19964;-70
2022/03/20 01:30:40;;;;;;;;;;;;;;;2.63;62.56;97441.28;4946333;29;20399;-71
2022/03/20 01:33:06;;;;;;;;;;;;;;;2.62;62.66;97445.66;4946306;29;19978;-71
2022/03/20 01:35:35;;;;;;;;;;;;;;;2.62;62.17;97432.72;4944622;29;19956;-70
2022/03/20 01:38:01;;;;;;;;;;;;;;;2.64;62.25;97441.13;4949240;29;19945;-70
2022/03/20 01:40:27;;;;;;;;;;;;;;;2.66;61.86;97437.59;4947183;29;19956;-71
2022/03/20 01:42:53;;;;;;;;;;;;;;;2.64;60.79;97419.59;4942202;29;19960;-71
2022/03/20 01:45:21;;;;;;;;;;;;;;;2.63;60.60;97423.97;4945745;29;19964;-70
2022/03/20 01:47:48;;;;;;;;;;;;;;;2.62;60.20;97426.69;4946761;29;19965;-71
2022/03/20 01:50:15;;;;;;;;;;;;;;;2.61;60.32;97436.25;4947572;29;19978;-71
2022/03/20 01:52:42;;;;;;;;;;;;;;;2.62;60.73;97429.28;4927818;29;19964;-71
2022/03/20 01:55:08;;;;;;;;;;;;;;;2.63;60.72;97436.13;4944699;29;19957;-71
2022/03/20 01:57:37;;;;;;;;;;;;;;;2.62;60.93;97444.81;4946812;29;20018;-71
2022/03/20 02:00:04;;;;;;;;;;;;;;;2.59;60.86;97432.19;4947472;29;19956;-71
2022/03/20 02:02:30;;;;;;;;;;;;;;;2.58;61.26;97430.53;4923028;29;19962;-72
2022/03/20 02:04:56;;;;;;;;;;;;;;;2.56;60.97;97435.03;4950388;29;19949;-71
2022/03/20 02:07:22;;;;;;;;;;;;;;;2.52;61.20;97431.94;4944581;29;19968;-71
2022/03/20 02:09:48;;;;;;;;;;;;;;;2.51;61.09;97419.94;4946319;29;19955;-71
2022/03/20 02:12:14;;;;;;;;;;;;;;;2.50;61.18;97427.84;4946722;29;19947;-71
2022/03/20 02:14:40;;;;;;;;;;;;;;;2.49;60.93;97424.44;4925072;29;19967;-71
2022/03/20 02:17:07;;;;;;;;;;;;;;;2.46;61.18;97429.06;4948997;29;20062;-71
2022/03/20 02:19:36;;;;;;;;;;;;;;;2.44;61.51;97427.47;4946253;29;20327;-71
2022/03/20 02:22:03;;;;;;;;;;;;;;;2.40;61.79;97439.06;4946000;29;20402;-71
2022/03/20 02:24:41;;;;;;;;;;;;;;;2.38;61.69;97432.41;4944751;29;19964;-71
2022/03/20 02:27:09;;;;;;;;;;;;;;;2.36;62.13;97434.31;4940033;29;20431;-71
2022/03/20 02:29:35;;;;;;;;;;;;;;;2.32;62.23;97430.38;4941943;29;19961;-70
2022/03/20 02:32:02;;;;;;;;;;;;;;;2.33;61.95;97429.41;4943977;29;19956;-70
2022/03/20 02:34:30;;;;;;;;;;;;;;;2.30;62.18;97419.34;4950582;29;19996;-70
2022/03/20 02:36:57;;;;;;;;;;;;;;;2.30;61.92;97409.78;4948502;29;20443;-70
2022/03/20 02:39:23;;;;;;;;;;;;;;;2.29;61.72;97421.13;4943204;29;19984;-70
2022/03/20 02:41:50;;;;;;;;;;;;;;;2.31;62.01;97408.00;4947005;29;19962;-71
2022/03/20 02:44:16;;;;;;;;;;;;;;;2.32;62.11;97415.66;4948854;29;19949;-70
2022/03/20 02:46:42;;;;;;;;;;;;;;;2.35;61.92;97404.19;4945510;29;19956;-70
2022/03/20 02:49:13;;;;;;;;;;;;;;;2.34;61.79;97415.50;4941933;29;20418;-70
2022/03/20 02:51:39;;;;;;;;;;;;;;;2.35;62.14;97411.94;4949339;29;19951;-71
2022/03/20 02:54:05;;;;;;;;;;;;;;;2.36;62.03;97417.00;4945626;29;19966;-71
2022/03/20 02:56:32;;;;;;;;;;;;;;;2.37;61.93;97421.22;4946231;29;19983;-71
2022/03/20 02:58:58;;;;;;;;;;;;;;;2.40;62.06;97422.72;4947609;29;20446;-71
2022/03/20 03:01:24;;;;;;;;;;;;;;;2.42;61.42;97418.22;4947537;29;19947;-71
2022/03/20 03:03:53;;;;;;;;;;;;;;;2.43;61.29;97420.63;4951575;29;19949;-70
2022/03/20 03:06:20;;;;;;;;;;;;;;;2.44;61.67;97417.09;4948896;29;19964;-71
2022/03/20 03:11:30;;;;;;;;;;;;;;;2.42;62.38;97421.59;4946357;29;19955;-70
2022/03/20 03:13:56;;;;;;;;;;;;;;;2.41;62.37;97419.16;4948565;29;19971;-70
2022/03/20 03:16:22;;;;;;;;;;;;;;;2.38;62.11;97415.09;4944652;29;20008;-70
2022/03/20 03:18:48;;;;;;;;;;;;;;;2.34;61.96;97418.91;4949364;29;19954;-71
2022/03/20 03:21:14;;;;;;;;;;;;;;;2.32;62.38;97420.00;4949183;29;19958;-71
2022/03/20 03:23:41;;;;;;;;;;;;;;;2.32;62.76;97426.00;4949785;29;20333;-71
2022/03/20 03:26:07;;;;;;;;;;;;;;;2.31;63.02;97426.13;4941407;29;20488;-71
2022/03/20 03:28:34;;;;;;;;;;;;;;;2.33;62.90;97427.66;4950229;29;20056;-71
2022/03/20 03:31:01;;;;;;;;;;;;;;;2.34;63.17;97431.84;4952320;29;19965;-70
2022/03/20 03:33:27;;;;;;;;;;;;;;;2.32;63.00;97433.75;4946937;29;19974;-71
2022/03/20 03:35:56;;;;;;;;;;;;;;;2.31;62.97;97428.72;4945420;29;19955;-71
2022/03/20 03:38:27;;;;;;;;;;;;;;;2.30;62.86;97419.34;4945558;29;19950;-71
2022/03/20 03:40:53;;;;;;;;;;;;;;;2.29;63.21;97441.81;4951433;29;20405;-71
2022/03/20 03:43:18;;;;;;;;;;;;;;;2.27;63.04;97424.78;4947280;29;19959;-70
2022/03/20 03:45:45;;;;;;;;;;;;;;;2.23;63.26;97424.28;4944553;29;19960;-71
2022/03/20 03:48:11;;;;;;;;;;;;;;;2.21;63.08;97427.00;4950506;29;20030;-71
2022/03/20 03:50:38;;;;;;;;;;;;;;;2.17;62.86;97423.06;4948527;29;19957;-71
2022/03/20 03:53:08;;;;;;;;;;;;;;;2.17;63.40;97435.19;4944370;29;21481;-70
2022/03/20 03:55:34;;;;;;;;;;;;;;;2.16;63.34;97434.38;4946761;29;19969;-70
2022/03/20 03:57:59;;;;;;;;;;;;;;;2.15;63.33;97437.91;4948741;29;19953;-70
2022/03/20 04:00:27;;;;;;;;;;;;;;;2.13;63.34;97444.19;4948326;29;20004;-70
2022/03/20 04:02:53;;;;;;;;;;;;;;;2.12;63.57;97456.31;4946420;29;19961;-70
2022/03/20 04:05:19;;;;;;;;;;;;;;;2.11;63.56;97449.50;4948256;29;19953;-70
2022/03/20 04:07:45;;;;;;;;;;;;;;;2.09;63.50;97448.81;4948271;29;19955;-70
2022/03/20 04:10:11;;;;;;;;;;;;;;;2.10;63.89;97465.16;4947060;29;19947;-70
2022/03/20 04:12:40;;;;;;;;;;;;;;;2.09;63.75;97458.34;4940795;29;19956;-71
2022/03/20 04:15:10;;;;;;;;;;;;;;;2.08;64.18;97465.31;4948323;29;19965;-71
2022/03/20 04:17:37;;;;;;;;;;;;;;;2.12;63.97;97465.81;4952421;29;19958;-71
2022/03/20 04:20:04;;;;;;;;;;;;;;;2.13;64.42;97465.69;4929221;29;19949;-71
2022/03/20 04:22:30;;;;;;;;;;;;;;;2.15;64.31;97466.38;4947005;29;19953;-71
2022/03/20 04:24:56;;;;;;;;;;;;;;;2.17;64.25;97463.66;4951234;29;19953;-71
2022/03/20 04:27:23;;;;;;;;;;;;;;;2.19;64.21;97459.16;4944306;29;20337;-71
2022/03/20 04:29:49;;;;;;;;;;;;;;;2.19;64.41;97459.97;4945082;29;20430;-71
2022/03/20 04:32:16;;;;;;;;;;;;;;;2.17;64.34;97461.88;4946993;29;19968;-71
2022/03/20 04:34:42;;;;;;;;;;;;;;;2.13;64.13;97463.09;4945777;29;19972;-71
2022/03/20 04:37:09;;;;;;;;;;;;;;;2.13;64.63;97468.28;4946686;29;19954;-71
2022/03/20 04:39:35;;;;;;;;;;;;;;;2.14;64.66;97475.09;4947979;29;19955;-71
2022/03/20 04:42:02;;;;;;;;;;;;;;;2.15;64.75;97473.31;4943767;29;19958;-72
2022/03/20 04:44:28;;;;;;;;;;;;;;;2.17;64.74;97471.41;4945499;29;19957;-71
2022/03/20 04:46:54;;;;;;;;;;;;;;;2.20;64.97;97478.88;4952648;29;20007;-71
2022/03/20 05:00:23;;;;;;;;;;;;;;;2.26;65.31;97475.75;4946508;29;19951;-71
2022/03/20 05:02:49;;;;;;;;;;;;;;;2.24;64.99;97470.69;4943306;29;20434;-71
2022/03/20 05:05:16;;;;;;;;;;;;;;;2.22;65.31;97487.31;4947496;29;19972;-71
2022/03/20 05:07:42;;;;;;;;;;;;;;;2.22;65.13;97492.50;4949777;29;19949;-71
2022/03/20 05:15:39;;;;;;;;;;;;;;;2.24;65.91;97491.41;4948274;29;19947;-71
2022/03/20 05:18:08;;;;;;;;;;;;;;;2.26;66.05;97506.00;4941973;28;19963;-72
2022/03/20 05:20:34;;;;;;;;;;;;;;;2.26;66.40;97508.56;4946113;29;20338;-71
2022/03/20 05:23:00;;;;;;;;;;;;;;;2.24;66.50;97514.69;4946654;29;19950;-71
2022/03/20 05:25:28;;;;;;;;;;;;;;;2.16;66.36;97511.16;4948459;29;20440;-71
2022/03/20 05:27:54;;;;;;;;;;;;;;;2.09;66.41;97510.91;4942320;29;19956;-72
2022/03/20 05:30:20;;;;;;;;;;;;;;;2.07;66.82;97509.41;4944625;29;19961;-72
2022/03/20 05:32:47;;;;;;;;;;;;;;;2.09;66.96;97510.91;4947906;29;20324;-71
2022/03/20 05:35:15;;;;;;;;;;;;;;;2.11;66.81;97515.97;4945218;29;19968;-71
2022/03/20 05:37:44;;;;;;;;;;;;;;;2.06;66.86;97508.63;4949741;29;19962;-71
2022/03/20 05:40:11;;;;;;;;;;;;;;;2.02;66.50;97513.25;4946216;29;20417;-71
2022/03/20 05:42:36;;;;;;;;;;;;;;;2.04;66.96;97510.53;4944857;29;19956;-71
2022/03/20 05:45:03;;;;;;;;;;;;;;;2.08;67.18;97513.63;4926147;29;20354;-70
2022/03/20 05:47:31;;;;;;;;;;;;;;;2.12;66.98;97523.59;4944934;29;19955;-71
2022/03/20 05:49:59;;;;;;;;;;;;;;;2.15;66.93;97514.72;4932344;29;20326;-71
2022/03/20 05:52:25;;;;;;;;;;;;;;;2.11;67.15;97516.78;4946629;29;19958;-71
2022/03/20 05:54:51;;;;;;;;;;;;;;;2.11;66.72;97518.53;4942613;29;19995;-71
2022/03/20 06:00:03;;;;;;;;;;;;;;;2.15;67.26;97522.50;4947452;29;19955;-70
2022/03/20 06:02:29;;;;;;;;;;;;;;;2.12;67.13;97518.41;4927652;29;19957;-71
2022/03/20 06:04:55;;;;;;;;;;;;;;;2.14;66.91;97520.84;4945675;29;19955;-70
2022/03/20 06:07:21;;;;;;;;;;;;;;;2.17;67.31;97525.75;4948285;29;20434;-71
2022/03/20 06:09:47;;;;;;;;;;;;;;;2.19;66.83;97522.06;4948250;29;19953;-71
2022/03/20 06:12:13;;;;;;;;;;;;;;;2.18;67.59;97527.38;4946983;29;20503;-71
2022/03/20 06:14:39;;;;;;;;;;;;;;;2.23;67.36;97543.31;4941215;29;20009;-71
2022/03/20 06:17:06;;;;;;;;;;;;;;;2.28;66.63;97537.72;4944840;29;19977;-71
2022/03/20 06:19:31;;;;;;;;;;;;;;;2.37;66.50;97535.13;4944200;29;19959;-71
2022/03/20 06:21:57;;;;;;;;;;;;;;;2.46;66.37;97540.41;4945813;29;19951;-70
2022/03/20 06:24:23;;;;;;;;;;;;;;;2.56;66.36;97539.44;4927465;29;19954;-71
2022/03/20 06:26:50;;;;;;;;;;;;;;;2.82;66.33;97546.59;4944821;29;20031;-71
2022/03/20 06:29:15;;;;;;;;;;;;;;;3.21;64.94;97539.47;4941670;29;19965;-72
2022/03/20 06:31:42;;;;;;;;;;;;;;;3.64;63.96;97527.59;4953742;28;19955;-71
2022/03/20 06:34:08;;;;;;;;;;;;;;;3.98;62.63;97510.56;4949666;29;19975;-71
2022/03/20 06:36:35;;;;;;;;;;;;;;;4.19;62.19;97508.44;4949595;29;20325;-71
2022/03/20 06:39:01;;;;;;;;;;;;;;;4.48;60.91;97504.75;4948222;29;19961;-70
2022/03/20 06:41:27;;;;;;;;;;;;;;;4.63;60.12;97505.81;4949085;29;19981;-70
2022/03/20 06:43:53;;;;;;;;;;;;;;;4.71;60.30;97505.03;4944960;29;19947;-71
2022/03/20 06:46:20;;;;;;;;;;;;;;;4.90;60.02;97519.59;4949307;29;19970;-71
2022/03/20 06:48:46;;;;;;;;;;;;;;;5.09;58.83;97508.94;4943797;29;20434;-71
2022/03/20 06:51:12;;;;;;;;;;;;;;;5.38;59.12;97505.16;4949793;29;19958;-71
2022/03/20 06:53:38;;;;;;;;;;;;;;;5.74;58.23;97501.47;4954227;29;20014;-72
2022/03/20 06:56:04;;;;;;;;;;;;;;;5.98;56.50;97501.50;4942881;29;19954;-71
2022/03/20 06:58:30;;;;;;;;;;;;;;;6.19;56.87;97523.66;4948446;29;19962;-71
2022/03/20 07:00:57;;;;;;;;;;;;;;;6.54;57.01;97519.88;4949355;29;20006;-71
2022/03/20 07:03:23;;;;;;;;;;;;;;;6.87;54.20;97501.56;4950668;29;19960;-71
2022/03/20 07:05:49;;;;;;;;;;;;;;;7.08;55.55;97516.66;4944424;29;19954;-72
2022/03/20 07:08:15;;;;;;;;;;;;;;;7.10;53.88;97501.63;4948588;29;19967;-71
2022/03/20 07:10:42;;;;;;;;;;;;;;;7.11;53.70;97504.06;4953279;29;19950;-71
2022/03/20 07:15:56;;;;;;;;;;;;;;;7.09;53.75;97508.63;4947991;29;19967;-71
2022/03/20 07:18:22;;;;;;;;;;;;;;;7.02;54.31;97509.50;4943777;29;19954;-71
2022/03/20 07:20:48;;;;;;;;;;;;;;;7.16;54.13;97524.44;4945476;29;19963;-71
2022/03/20 07:23:15;;;;;;;;;;;;;;;7.20;54.39;97538.78;4944330;29;20486;-71
2022/03/20 07:31:11;;;;;;;;;;;;;;;6.76;54.38;97535.78;4953093;29;19956;-71
2022/03/20 07:33:38;;;;;;;;;;;;;;;6.85;54.89;97547.84;4949838;29;19994;-71
2022/03/20 07:36:04;;;;;;;;;;;;;;;6.94;54.27;97541.63;4950270;29;20404;-71
2022/03/20 07:38:30;;;;;;;;;;;;;;;6.79;55.17;97551.13;4947875;29;19967;-71
2022/03/20 07:40:56;;;;;;;;;;;;;;;6.64;55.87;97551.00;4948441;29;19954;-71
2022/03/20 07:43:22;;;;;;;;;;;;;;;6.42;55.63;97553.25;4943748;28;19963;-71
2022/03/20 07:45:48;;;;;;;;;;;;;;;6.31;56.39;97564.03;4943745;29;20321;-71
2022/03/20 07:48:13;;;;;;;;;;;;;;;6.28;56.57;97559.97;4948363;29;19999;-71
2022/03/20 07:50:40;;;;;;;;;;;;;;;6.58;55.88;97560.28;4951692;29;19954;-72
2022/03/20 07:53:07;;;;;;;;;;;;;;;6.98;56.48;97560.34;4950880;29;20408;-71
2022/03/20 07:55:34;;;;;;;;;;;;;;;7.50;55.39;97555.44;4949811;29;19979;-71
2022/03/20 07:58:00;;;;;;;;;;;;;;;8.18;53.32;97547.81;4945076;29;19950;-72
2022/03/20 08:00:26;;;;;;;;;;;;;;;8.75;52.73;97546.53;4943956;29;20438;-71
2022/03/20 08:02:52;;;;;;;;;;;;;;;9.38;51.70;97543.53;4948456;29;20333;-72
2022/03/20 08:05:18;;;;;;;;;;;;;;;9.89;50.90;97553.97;4946867;29;19962;-72
2022/03/20 08:07:44;;;;;;;;;;;;;;;10.08;47.14;97544.69;4949513;29;19955;-71
2022/03/20 08:10:11;;;;;;;;;;;;;;;10.05;47.08;97552.94;4947139;29;19971;-71
2022/03/20 08:12:38;;;;;;;;;;;;;;;10.12;47.65;97567.75;4950645;29;20407;-71
2022/03/20 08:15:05;;;;;;;;;;;;;;;10.43;48.00;97565.81;4945829;29;20440;-71
2022/03/20 08:17:31;;;;;;;;;;;;;;;10.83;47.73;97564.28;4944630;29;19956;-71
2022/03/20 08:19:57;;;;;;;;;;;;;;;11.19;45.95;97560.66;4946561;29;19957;-71
2022/03/20 08:22:25;;;;;;;;;;;;;;;11.14;45.03;97565.69;4951573;29;19958;-71
2022/03/20 08:24:51;;;;;;;;;;;;;;;10.83;44.83;97572.16;4941981;29;20402;-71
2022/03/20 08:27:19;;;;;;;;;;;;;;;10.48;46.83;97579.19;4943126;29;19976;-71
2022/03/20 08:29:45;;;;;;;;;;;;;;;9.96;47.61;97587.13;4947615;29;19963;-71
2022/03/20 08:32:11;;;;;;;;;;;;;;;9.59;48.07;97590.72;4936550;29;19998;-71
2022/03/20 08:34:37;;;;;;;;;;;;;;;9.43;49.41;97598.78;4946600;29;19976;-71
2022/03/20 08:37:03;;;;;;;;;;;;;;;9.27;50.74;97599.78;4927119;29;20041;-71
2022/03/20 08:39:28;;;;;;;;;;;;;;;8.96;50.62;97594.72;4946651;29;19954;-71
2022/03/20 08:41:54;;;;;;;;;;;;;;;8.79;51.44;97602.72;4928898;29;20426;-71
2022/03/20 08:44:20;;;;;;;;;;;;;;;8.66;51.54;97599.91;4946142;29;19954;-71
2022/03/20 08:46:46;;;;;;;;;;;;;;;8.64;51.38;97597.47;4950976;29;20324;-72
2022/03/20 08:49:12;;;;;;;;;;;;;;;8.67;52.11;97607.59;4943778;29;19958;-71
2022/03/20 08:51:42;;;;;;;;;;;;;;;8.67;51.95;97614.59;4945714;29;19964;-71
2022/03/20 08:54:09;;;;;;;;;;;;;;;8.65;51.28;97621.81;4951725;28;19970;-71
2022/03/20 08:56:34;;;;;;;;;;;;;;;8.49;51.51;97613.09;4944938;29;20444;-71
2022/03/20 08:59:00;;;;;;;;;;;;;;;8.43;52.71;97623.47;4946105;29;19983;-72
2022/03/20 09:01:26;;;;;;;;;;;;;;;8.42;52.54;97624.44;4952147;29;20005;-71
2022/03/20 09:03:52;;;;;;;;;;;;;;;8.40;52.60;97623.75;4946756;29;19957;-71
2022/03/20 09:06:21;;;;;;;;;;;;;;;8.34;52.79;97630.53;4944787;29;19953;-71
2022/03/20 09:08:48;;;;;;;;;;;;;;;8.27;52.99;97625.19;4947003;29;19971;-71
2022/03/20 09:11:14;;;;;;;;;;;;;;;8.25;53.38;97635.00;4944365;29;20420;-71
2022/03/20 09:13:40;;;;;;;;;;;;;;;8.22;52.64;97632.72;4951926;29;20302;-72
2022/03/20 09:19:00;;;;;;;;;;;;;;;8.12;51.74;97629.50;4944756;29;20322;-70
2022/03/20 09:21:30;;;;;;;;;;;;;;;8.10;52.91;97644.53;4951915;29;20403;-70
2022/03/20 09:23:56;;;;;;;;;;;;;;;8.07;52.31;97631.84;4944041;29;20022;-71
2022/03/20 09:26:22;;;;;;;;;;;;;;;8.09;51.52;97633.28;4946157;29;20065;-70
2022/03/20 09:28:48;;;;;;;;;;;;;;;8.12;52.20;97637.34;4945599;29;20468;-72
2022/03/20 09:31:15;;;;;;;;;;;;;;;8.16;51.23;97632.59;4940716;29;20344;-71
2022/03/20 09:33:41;;;;;;;;;;;;;;;8.16;51.86;97633.41;4945594;29;20444;-72
2022/03/20 09:36:07;;;;;;;;;;;;;;;8.21;51.03;97630.25;4949603;29;19959;-73
2022/03/20 09:38:34;;;;;;;;;;;;;;;8.27;51.36;97637.41;4945183;29;20035;-71
2022/03/20 09:41:03;;;;;;;;;;;;;;;8.31;51.70;97638.69;4943798;29;20410;-73
2022/03/20 09:43:30;;;;;;;;;;;;;;;8.36;52.45;97646.00;4944460;29;19959;-72
2022/03/20 09:45:55;;;;;;;;;;;;;;;8.42;52.96;97640.97;4946635;29;19966;-71
2022/03/20 09:48:21;;;;;;;;;;;;;;;8.45;51.10;97634.56;4922850;29;19954;-72
2022/03/20 09:50:47;;;;;;;;;;;;;;;8.45;50.76;97637.16;4945294;29;19955;-72
2022/03/20 09:53:13;;;;;;;;;;;;;;;8.43;50.96;97634.72;4949975;29;20322;-73
2022/03/20 09:55:39;;;;;;;;;;;;;;;8.46;51.29;97644.84;4944384;29;20021;-71
2022/03/20 09:58:05;;;;;;;;;;;;;;;8.51;51.53;97650.34;4941103;29;20329;-72
2022/03/20 10:00:32;;;;;;;;;;;;;;;8.57;50.89;97645.41;4947958;29;19950;-71
2022/03/20 10:02:58;;;;;;;;;;;;;;;8.65;50.59;97645.34;4949562;29;19948;-72
2022/03/20 10:05:26;;;;;;;;;;;;;;;8.76;50.97;97647.56;4928226;29;19964;-72
2022/03/20 10:07:52;;;;;;;;;;;;;;;8.87;50.82;97646.31;4950193;29;19952;-71
2022/03/20 10:10:19;;;;;;;;;;;;;;;8.98;50.39;97632.78;4950127;29;20307;-71
2022/03/20 10:12:53;;;;;;;;;;;;;;;9.12;50.26;97629.38;4942947;29;19956;-71
2022/03/20 10:15:27;;;;;;;;;;;;;;;9.28;49.78;97624.97;4949737;29;19976;-72
2022/03/20 10:18:07;;;;;;;;;;;;;;;9.45;50.63;97629.03;4950717;29;20335;-71
2022/03/20 10:20:44;;;;;;;;;;;;;;;9.64;49.64;97617.19;4945003;29;19961;-71
2022/03/20 10:23:28;;;;;;;;;;;;;;;9.84;49.13;97622.66;4945335;29;19955;-71
2022/03/20 10:25:55;;;;;;;;;;;;;;;10.06;49.36;97620.91;4950152;29;19977;-71
2022/03/20 10:28:21;;;;;;;;;;;;;;;10.36;48.31;97612.97;4950145;29;19957;-71
2022/03/20 10:31:00;;;;;;;;;;;;;;;10.65;47.12;97606.75;4953209;29;20044;-71
2022/03/20 10:33:25;;;;;;;;;;;;;;;10.92;46.32;97602.53;4948854;29;19953;-71
2022/03/20 10:36:27;;;;;;;;;;;;;;;11.10;46.28;97609.91;4947300;29;19979;-71
2022/03/20 10:38:53;;;;;;;;;;;;;;;11.44;47.02;97603.00;4909062;29;19956;-71
2022/03/20 10:41:19;;;;;;;;;;;;;;;11.67;45.44;97594.84;4941566;29;19951;-71
2022/03/20 10:43:45;;;;;;;;;;;;;;;11.86;44.55;97597.72;4949743;29;19946;-71
2022/03/20 10:46:22;;;;;;;;;;;;;;;12.07;45.13;97602.06;4948458;29;19955;-71
2022/03/20 10:48:49;;;;;;;;;;;;;;;12.38;43.53;97596.25;4943860;29;19953;-73
2022/03/20 10:51:25;;;;;;;;;;;;;;;12.71;44.13;97595.47;4931977;29;20314;-71
2022/03/20 10:54:01;;;;;;;;;;;;;;;12.83;44.16;97598.28;4954811;29;19954;-71
2022/03/20 10:56:27;;;;;;;;;;;;;;;13.01;44.63;97611.66;4937633;29;20317;-72
2022/03/20 10:58:53;;;;;;;;;;;;;;;13.16;43.85;97606.16;4928555;29;19957;-71
2022/03/20 11:01:32;;;;;;;;;;;;;;;13.24;44.37;97602.50;4948569;29;19956;-72
2022/03/20 11:03:59;;;;;;;;;;;;;;;13.17;42.71;97594.63;4949279;29;20424;-73
2022/03/20 11:06:25;;;;;;;;;;;;;;;13.33;42.32;97586.31;4947525;29;19952;-73
2022/03/20 11:08:51;;;;;;;;;;;;;;;13.54;40.73;97587.84;4943661;29;19996;-72
2022/03/20 11:11:17;;;;;;;;;;;;;;;13.83;42.94;97598.06;4950167;29;20416;-71
2022/03/20 11:13:46;;;;;;;;;;;;;;;14.02;41.46;97597.16;4952032;29;19953;-72
2022/03/20 11:16:12;;;;;;;;;;;;;;;14.26;41.90;97598.25;4946568;28;19963;-72
2022/03/20 11:18:39;;;;;;;;;;;;;;;14.50;41.25;97591.38;4949404;29;19953;-71
2022/03/20 11:21:05;;;;;;;;;;;;;;;14.55;38.97;97590.72;4948995;29;19950;-72
2022/03/20 11:23:33;;;;;;;;;;;;;;;14.59;39.42;97587.50;4949761;29;19949;-72
2022/03/20 11:26:00;;;;;;;;;;;;;;;14.65;39.65;97592.94;4948111;29;19980;-71
2022/03/20 11:28:27;;;;;;;;;;;;;;;14.78;39.51;97580.44;4948724;29;19957;-71
2022/03/20 11:30:56;;;;;;;;;;;;;;;14.94;40.77;97583.53;4946626;29;19946;-71
2022/03/20 11:33:22;;;;;;;;;;;;;;;14.96;38.85;97576.19;4948072;29;20317;-71
2022/03/20 11:35:49;;;;;;;;;;;;;;;15.19;38.92;97580.84;4945994;29;20338;-71
2022/03/20 11:38:15;;;;;;;;;;;;;;;15.39;38.84;97576.16;4952964;29;19954;-71
2022/03/20 11:41:00;;;;;;;;;;;;;;;15.66;38.94;97582.97;4944903;29;19950;-70
2022/03/20 11:43:26;;;;;;;;;;;;;;;15.90;37.05;97581.28;4948053;29;19953;-71
2022/03/20 11:46:28;;;;;;;;;;;;;;;16.09;35.79;97580.19;4945591;29;19957;-71
2022/03/20 11:49:12;;;;;;;;;;;;;;;16.34;38.49;97574.75;4925316;29;19959;-71
2022/03/20 11:51:55;;;;;;;;;;;;;;;16.37;35.95;97569.00;4946744;29;19949;-71
2022/03/20 11:54:27;;;;;;;;;;;;;;;16.49;34.97;97561.06;4944507;29;19954;-71
2022/03/20 11:56:54;;;;;;;;;;;;;;;16.47;34.83;97567.63;4946420;29;19959;-72
2022/03/20 11:59:39;;;;;;;;;;;;;;;16.28;34.30;97564.25;4951796;29;19963;-71
2022/03/20 12:02:06;;;;;;;;;;;;;;;16.39;35.19;97568.75;4952395;29;19957;-72
2022/03/20 12:04:39;;;;;;;;;;;;;;;16.60;32.75;97560.28;4930088;29;19952;-71
2022/03/20 12:07:15;;;;;;;;;;;;;;;16.87;35.14;97559.88;4943781;29;20336;-71
2022/03/20 12:09:59;;;;;;;;;;;;;;;17.12;33.10;97561.47;4937738;29;19952;-71
2022/03/20 12:12:31;;;;;;;;;;;;;;;17.36;33.27;97564.88;4938537;29;19953;-72
2022/03/20 12:14:59;;;;;;;;;;;;;;;17.47;31.73;97549.97;4940751;29;20432;-71
2022/03/20 12:17:45;;;;;;;;;;;;;;;17.44;29.59;97553.91;4928168;29;19963;-72
2022/03/20 12:20:11;;;;;;;;;;;;;;;17.42;32.68;97556.78;4947877;29;19951;-71
2022/03/20 12:22:37;;;;;;;;;;;;;;;17.48;32.02;97557.72;4951741;29;20043;-71
2022/03/20 12:25:04;;;;;;;;;;;;;;;17.55;31.74;97561.03;4945280;29;20002;-71
2022/03/20 12:27:30;;;;;;;;;;;;;;;17.62;30.64;97552.97;4945578;28;19961;-71
2022/03/20 12:30:03;;;;;;;;;;;;;;;17.73;31.56;97553.94;4947161;29;19955;-71
2022/03/20 12:32:46;;;;;;;;;;;;;;;17.79;31.64;97553.81;4946487;29;19947;-71
2022/03/20 12:35:17;;;;;;;;;;;;;;;17.84;31.05;97548.63;4944663;29;19959;-71
2022/03/20 12:37:44;;;;;;;;;;;;;;;17.90;30.67;97556.69;4947962;29;19960;-70
2022/03/20 12:40:12;;;;;;;;;;;;;;;17.96;29.08;97548.56;4951767;29;19958;-72
2022/03/20 12:42:40;;;;;;;;;;;;;;;17.98;28.69;97549.16;4947541;29;20031;-71
2022/03/20 12:45:08;;;;;;;;;;;;;;;18.09;30.56;97550.13;4945968;29;20409;-71
2022/03/20 12:47:34;;;;;;;;;;;;;;;17.97;29.77;97536.91;4943751;29;20416;-71
2022/03/20 12:50:03;;;;;;;;;;;;;;;17.88;30.40;97540.19;4947658;29;19963;-71
2022/03/20 12:52:31;;;;;;;;;;;;;;;17.84;30.71;97543.31;4950546;29;20342;-71
2022/03/20 12:54:58;;;;;;;;;;;;;;;17.92;31.22;97541.34;4949649;29;19979;-71
2022/03/20 12:57:37;;;;;;;;;;;;;;;18.01;30.99;97523.97;4945316;29;19965;-71
2022/03/20 13:00:17;;;;;;;;;;;;;;;18.07;32.27;97538.94;4947454;29;20300;-71
2022/03/20 13:03:03;;;;;;;;;;;;;;;18.18;30.99;97534.59;4944876;29;19954;-71
2022/03/20 13:05:31;;;;;;;;;;;;;;;18.25;29.65;97527.31;4944960;29;20395;-71
2022/03/20 13:07:57;;;;;;;;;;;;;;;18.25;30.19;97522.00;4948147;29;19957;-70
2022/03/20 13:10:24;;;;;;;;;;;;;;;18.13;30.69;97523.91;4948571;29;20435;-71
2022/03/20 13:12:51;;;;;;;;;;;;;;;18.10;31.12;97529.69;4946475;29;19955;-71
2022/03/20 13:15:21;;;;;;;;;;;;;;;18.08;31.49;97519.31;4941045;29;20325;-70
2022/03/20 13:17:47;;;;;;;;;;;;;;;18.16;30.75;97521.56;4948840;29;19956;-70
2022/03/20 13:20:17;;;;;;;;;;;;;;;18.27;31.05;97527.88;4948540;29;19951;-71
2022/03/20 13:22:43;;;;;;;;;;;;;;;18.11;27.18;97512.72;4950083;29;19950;-71
2022/03/20 13:25:13;;;;;;;;;;;;;;;17.91;28.79;97516.66;4946093;29;20300;-71
2022/03/20 13:27:39;;;;;;;;;;;;;;;17.72;28.38;97510.69;4944959;29;20024;-70
2022/03/20 13:30:06;;;;;;;;;;;;;;;17.72;30.75;97515.97;4945078;29;19963;-71